📊 Raw Sensor Data
Showing records 40626 to 40650 of 84,967 total
| ID | Distance (ft) | Battery V | Battery A | Int Temp (°F) | Int Humid (%) | Ext Temp (°F) | Solar V | RSSI | SNR | Time Stamp |
|---|---|---|---|---|---|---|---|---|---|---|
| 44354 | 15.6 | 3.88 | -5 | 63 | 46 | 64 | 0.00 | -68 | 8 | 06/23/2025 11:00 PM |
| 44353 | 15.6 | 3.95 | -5 | 64 | 46 | 65 | 0.00 | -68 | 7 | 06/23/2025 10:45 PM |
| 44352 | 15.6 | 3.95 | -5 | 65 | 46 | 65 | 0.00 | -70 | 8 | 06/23/2025 10:30 PM |
| 44351 | 15.6 | 3.88 | -5 | 65 | 47 | 66 | 0.00 | -68 | 7 | 06/23/2025 10:15 PM |
| 44350 | 15.6 | 3.88 | -5 | 66 | 47 | 67 | 0.10 | -69 | 8 | 06/23/2025 10:00 PM |
| 44349 | 15.6 | 3.95 | -5 | 67 | 48 | 67 | 0.00 | -69 | 8 | 06/23/2025 09:45 PM |
| 44348 | 15.6 | 3.88 | -5 | 68 | 49 | 68 | 0.10 | -70 | 8 | 06/23/2025 09:30 PM |
| 44347 | 15.6 | 3.88 | -5 | 69 | 49 | 69 | 0.00 | -70 | 8 | 06/23/2025 09:15 PM |
| 44346 | 15.6 | 3.95 | -5 | 70 | 50 | 70 | 0.00 | -71 | 8 | 06/23/2025 09:00 PM |
| 44345 | 15.6 | 3.88 | -5 | 72 | 52 | 71 | 0.70 | -70 | 8 | 06/23/2025 08:45 PM |
| 44344 | 15.7 | 3.87 | -10 | 73 | 53 | 72 | 3.20 | -70 | 8 | 06/23/2025 08:30 PM |
| 44343 | 15.7 | 3.95 | -5 | 76 | 55 | 74 | 4.50 | -71 | 8 | 06/23/2025 08:15 PM |
| 44342 | 15.7 | 3.97 | 0 | 79 | 55 | 76 | 4.50 | -72 | 7 | 06/23/2025 08:00 PM |
| 44341 | 15.7 | 3.98 | 6 | 85 | 53 | 80 | 4.50 | -72 | 7 | 06/23/2025 07:45 PM |
| 44340 | 15.7 | 3.99 | 9 | 86 | 56 | 80 | 4.50 | -71 | 7 | 06/23/2025 07:30 PM |
| 44339 | 15.8 | 4.00 | -6 | 91 | 55 | 84 | 4.50 | -71 | 8 | 06/23/2025 07:15 PM |
| 44338 | 15.9 | 3.96 | 15 | 96 | 52 | 89 | 4.50 | -71 | 8 | 06/23/2025 07:00 PM |
| 44337 | 15.8 | 3.94 | 0 | 97 | 52 | 89 | 5.10 | -73 | 8 | 06/23/2025 06:45 PM |
| 44336 | 15.9 | 3.94 | 0 | 99 | 52 | 90 | 5.10 | -71 | 8 | 06/23/2025 06:30 PM |
| 44335 | 15.9 | 3.94 | 0 | 102 | 52 | 90 | 5.10 | -72 | 8 | 06/23/2025 06:15 PM |
| 44334 | 15.9 | 4.11 | 0 | 104 | 50 | 96 | 5.10 | -71 | 8 | 06/23/2025 06:00 PM |
| 44333 | 15.9 | 3.98 | 0 | 107 | 48 | 98 | 5.10 | -70 | 8 | 06/23/2025 05:45 PM |
| 44332 | 15.9 | 3.94 | 0 | 107 | 47 | 98 | 5.10 | -71 | 8 | 06/23/2025 05:30 PM |
| 44331 | 15.9 | 3.94 | 0 | 107 | 46 | 100 | 5.10 | -69 | 8 | 06/23/2025 05:15 PM |
| 44330 | 15.9 | 3.94 | 0 | 106 | 45 | 100 | 5.10 | -70 | 8 | 06/23/2025 05:00 PM |